createdAt,value
2022-08-21T00:00:42.315Z,1.40
2022-08-21T00:05:51.083Z,1.00
2022-08-21T00:10:53.444Z,1.48
2022-08-21T00:15:56.276Z,2.65
2022-08-21T00:20:58.631Z,3.08
2022-08-21T00:26:00.871Z,1.75
2022-08-21T00:31:04.977Z,4.15
2022-08-21T00:36:07.480Z,4.43
2022-08-21T00:41:13.516Z,2.53
2022-08-21T00:46:33.988Z,3.88
2022-08-21T00:51:53.058Z,2.60
2022-08-21T00:57:00.619Z,3.00
2022-08-21T01:02:05.465Z,0.90
2022-08-21T01:07:08.168Z,5.93
2022-08-21T01:12:10.911Z,2.75
2022-08-21T01:17:15.023Z,4.22
2022-08-21T01:22:17.236Z,1.13
2022-08-21T01:27:19.813Z,1.08
2022-08-21T01:32:22.534Z,1.70
2022-08-21T01:37:24.738Z,5.13
2022-08-21T01:42:27.641Z,1.95
2022-08-21T01:47:29.834Z,1.85
2022-08-21T01:52:32.168Z,4.15
2022-08-21T01:57:34.555Z,8.40
2022-08-21T02:02:36.817Z,4.65
2022-08-21T02:07:44.411Z,5.55
2022-08-21T02:12:47.370Z,3.00
2022-08-21T02:17:59.133Z,1.58
2022-08-21T02:23:01.786Z,2.40
2022-08-21T02:28:10.343Z,3.15
2022-08-21T02:33:13.141Z,0.40
2022-08-21T02:38:22.615Z,2.75
2022-08-21T02:48:31.239Z,0.73
2022-08-21T02:53:35.220Z,3.03
2022-08-21T02:58:47.025Z,3.47
2022-08-21T03:03:52.440Z,1.35
2022-08-21T03:08:54.713Z,4.90
2022-08-21T03:13:57.013Z,3.55
2022-08-21T03:18:59.388Z,4.20
2022-08-21T03:24:02.932Z,4.32
2022-08-21T03:29:08.432Z,1.50
2022-08-21T03:34:11.188Z,2.45
2022-08-21T03:39:13.356Z,5.50
2022-08-21T03:44:15.704Z,1.77
2022-08-21T03:49:17.973Z,0.95
2022-08-21T03:54:20.219Z,0.98
2022-08-21T03:59:22.400Z,4.13
2022-08-21T04:04:25.127Z,2.70
2022-08-21T04:09:27.876Z,1.50
2022-08-21T04:14:30.095Z,2.05
2022-08-21T04:19:32.510Z,3.13
2022-08-21T04:24:35.777Z,3.22
2022-08-21T04:29:40.022Z,5.55
2022-08-21T04:34:42.462Z,5.95
2022-08-21T04:39:44.655Z,3.22
2022-08-21T04:44:50.122Z,3.85
2022-08-21T04:49:52.386Z,4.95
2022-08-21T04:54:55.078Z,0.80
2022-08-21T04:59:57.461Z,4.65
2022-08-21T05:05:00.159Z,2.13
2022-08-21T05:10:02.540Z,5.38
2022-08-21T05:15:05.387Z,1.73
2022-08-21T05:20:08.652Z,4.72
2022-08-21T05:25:11.247Z,5.50
2022-08-21T05:30:13.602Z,7.18
2022-08-21T05:35:16.186Z,4.82
2022-08-21T05:40:21.777Z,9.20
2022-08-21T05:45:43.356Z,6.28
2022-08-21T05:50:47.845Z,3.95
2022-08-21T05:55:51.050Z,9.52
2022-08-21T06:00:53.923Z,4.85
2022-08-21T06:05:56.804Z,6.20
2022-08-21T06:11:00.796Z,6.32
2022-08-21T06:16:16.089Z,3.15
2022-08-21T06:21:19.135Z,1.45
2022-08-21T06:26:22.560Z,5.57
2022-08-21T06:31:27.274Z,8.00
2022-08-21T06:36:29.416Z,8.20
2022-08-21T06:41:31.829Z,8.43
2022-08-21T06:46:41.326Z,10.07
2022-08-21T06:51:44.121Z,6.03
2022-08-21T06:56:46.391Z,13.88
2022-08-21T07:01:48.900Z,6.43
2022-08-21T07:06:51.383Z,3.78
2022-08-21T07:11:56.766Z,9.15
2022-08-21T07:16:59.201Z,6.93
2022-08-21T07:22:03.095Z,8.57
2022-08-21T07:27:09.801Z,3.28
2022-08-21T07:32:13.262Z,2.80
2022-08-21T07:37:16.103Z,9.05
2022-08-21T07:42:19.595Z,5.28
2022-08-21T07:47:41.264Z,4.32
2022-08-21T07:52:44.725Z,9.45
2022-08-21T07:57:47.868Z,8.45
2022-08-21T08:02:52.736Z,10.18
2022-08-21T08:07:55.780Z,8.05
2022-08-21T08:12:58.238Z,7.60
2022-08-21T08:18:00.692Z,4.55
2022-08-21T08:23:03.235Z,6.50
2022-08-21T08:28:16.575Z,9.48
2022-08-21T08:33:20.891Z,18.48
2022-08-21T08:38:24.993Z,10.40
2022-08-21T08:43:29.801Z,8.50
2022-08-21T08:48:58.263Z,9.00
2022-08-21T08:54:04.152Z,9.60
2022-08-21T08:59:17.190Z,11.52
2022-08-21T09:04:24.971Z,6.38
2022-08-21T09:09:34.555Z,7.82
2022-08-21T09:14:57.277Z,6.03
2022-08-21T09:20:12.753Z,8.13
2022-08-21T09:25:26.458Z,6.85
2022-08-21T09:30:33.171Z,6.88
2022-08-21T09:35:36.420Z,3.45
2022-08-21T09:40:47.962Z,5.05
2022-08-21T09:46:04.439Z,7.35
2022-08-21T09:51:10.420Z,5.60
2022-08-21T09:56:45.330Z,2.35
2022-08-21T10:01:50.312Z,3.67
2022-08-21T10:06:52.668Z,2.25
2022-08-21T10:12:12.517Z,3.33
2022-08-21T10:17:45.470Z,3.58
2022-08-21T10:23:02.564Z,2.88
2022-08-21T10:28:13.934Z,7.85
2022-08-21T10:33:37.813Z,12.88
2022-08-21T10:39:26.605Z,2.92
2022-08-21T10:45:01.840Z,3.33
2022-08-21T10:50:27.733Z,2.95
2022-08-21T10:55:48.987Z,0.88
2022-08-21T11:00:55.626Z,1.40
2022-08-21T11:06:14.306Z,2.42
2022-08-21T11:11:32.457Z,1.83
2022-08-21T11:16:49.584Z,1.30
2022-08-21T11:22:35.511Z,1.05
2022-08-21T11:27:46.591Z,0.82
2022-08-21T11:33:10.664Z,1.10
2022-08-21T11:38:42.005Z,0.70
2022-08-21T11:43:51.999Z,2.72
2022-08-21T11:49:17.398Z,1.20
2022-08-21T11:54:31.348Z,4.78
2022-08-21T11:59:50.884Z,2.03
2022-08-21T12:05:00.371Z,1.98
2022-08-21T12:10:31.473Z,0.80
2022-08-21T12:15:33.698Z,3.40
2022-08-21T12:20:43.808Z,2.67
2022-08-21T12:26:01.798Z,2.45
2022-08-21T12:31:04.071Z,3.65
2022-08-21T12:36:22.259Z,1.67
2022-08-21T12:41:35.059Z,5.30
2022-08-21T12:47:00.809Z,1.05
2022-08-21T12:52:39.201Z,2.60
2022-08-21T12:57:42.946Z,3.88
2022-08-21T13:02:49.721Z,3.58
2022-08-21T13:07:52.463Z,0.85
2022-08-21T13:13:01.548Z,1.52
2022-08-21T13:18:23.768Z,1.55
2022-08-21T13:23:28.568Z,4.78
2022-08-21T13:28:35.866Z,1.67
2022-08-21T13:33:40.311Z,0.22
2022-08-21T13:38:45.135Z,0.30
2022-08-21T13:43:59.042Z,0.30
2022-08-21T13:49:03.927Z,0.57
2022-08-21T13:54:28.283Z,0.80
2022-08-21T13:59:36.409Z,1.77
2022-08-21T14:04:52.988Z,0.80
2022-08-21T14:09:56.465Z,0.90
2022-08-21T14:14:59.115Z,3.08
2022-08-21T14:20:01.905Z,1.65
2022-08-21T14:25:12.125Z,2.75
2022-08-21T14:30:21.926Z,2.33
2022-08-21T14:35:24.753Z,3.63
2022-08-21T14:40:27.132Z,1.42
2022-08-21T14:45:31.462Z,0.82
2022-08-21T14:50:33.644Z,1.85
2022-08-21T14:55:56.087Z,3.65
2022-08-21T15:00:59.207Z,1.02
2022-08-21T15:06:02.271Z,1.10
2022-08-21T15:11:16.351Z,0.85
2022-08-21T15:16:22.722Z,3.53
2022-08-21T15:21:24.904Z,2.20
2022-08-21T15:26:27.239Z,3.22
2022-08-21T15:31:29.910Z,2.47
2022-08-21T15:36:32.307Z,0.60
2022-08-21T15:41:34.491Z,0.43
2022-08-21T15:46:38.376Z,4.55
2022-08-21T15:51:43.453Z,0.65
2022-08-21T15:56:49.011Z,0.65
2022-08-21T16:01:52.741Z,1.38
2022-08-21T16:07:01.761Z,1.85
2022-08-21T16:12:07.546Z,0.40
2022-08-21T16:17:10.200Z,2.50
2022-08-21T16:22:12.357Z,1.98
2022-08-21T16:27:14.651Z,1.83
2022-08-21T16:32:18.411Z,1.33
2022-08-21T16:37:24.100Z,0.52
2022-08-21T16:42:27.149Z,0.30
2022-08-21T16:47:29.374Z,0.45
2022-08-21T16:52:31.681Z,0.40
2022-08-21T16:57:34.106Z,0.93
2022-08-21T17:02:39.189Z,1.70
2022-08-21T17:07:42.472Z,2.50
2022-08-21T17:12:47.820Z,0.80
2022-08-21T17:17:54.031Z,0.60
2022-08-21T17:22:56.277Z,0.70
2022-08-21T17:27:59.580Z,2.05
2022-08-21T17:33:02.149Z,0.60
2022-08-21T17:38:04.431Z,0.68
2022-08-21T17:43:08.777Z,0.43
2022-08-21T17:48:14.191Z,3.03
2022-08-21T17:53:16.545Z,2.88
2022-08-21T17:58:19.028Z,2.90
2022-08-21T18:03:22.836Z,1.98
2022-08-21T18:08:25.643Z,1.75
2022-08-21T18:13:31.107Z,1.50
2022-08-21T18:18:42.505Z,2.47
2022-08-21T18:23:45.235Z,0.88
2022-08-21T18:28:48.299Z,1.48
2022-08-21T18:33:57.840Z,1.95
2022-08-21T18:39:25.895Z,0.80
2022-08-21T18:44:27.410Z,0.80
2022-08-21T18:49:29.836Z,3.28
2022-08-21T18:54:33.505Z,0.50
2022-08-21T18:59:42.153Z,1.17
2022-08-21T19:04:47.009Z,2.50
2022-08-21T19:10:21.080Z,2.33
2022-08-21T19:15:18.570Z,1.45
2022-08-21T19:20:36.474Z,1.10
2022-08-21T19:25:41.819Z,2.55
2022-08-21T19:30:53.205Z,0.70
2022-08-21T19:35:55.569Z,2.10
2022-08-21T19:40:58.047Z,1.65
2022-08-21T19:46:00.825Z,4.20
2022-08-21T19:51:03.658Z,5.00
2022-08-21T19:56:06.215Z,3.90
2022-08-21T20:01:11.585Z,1.60
2022-08-21T20:06:19.552Z,1.60
2022-08-21T20:11:34.754Z,3.95
2022-08-21T20:16:37.925Z,7.05
2022-08-21T20:21:44.669Z,1.00
2022-08-21T20:26:49.455Z,1.52
2022-08-21T20:32:12.277Z,1.27
2022-08-21T20:37:35.706Z,1.45
2022-08-21T20:42:44.813Z,2.67
2022-08-21T20:47:47.907Z,1.90
2022-08-21T20:53:08.095Z,1.33
2022-08-21T20:58:29.695Z,3.33
2022-08-21T21:03:42.847Z,3.10
2022-08-21T21:08:53.787Z,4.35
2022-08-21T21:14:04.734Z,2.78
2022-08-21T21:19:20.845Z,5.45
2022-08-21T21:24:31.865Z,1.40
2022-08-21T21:29:44.144Z,4.75
2022-08-21T21:34:50.954Z,2.45
2022-08-21T21:40:02.855Z,2.70
2022-08-21T21:45:26.897Z,4.95
2022-08-21T21:51:00.652Z,4.75
2022-08-21T21:56:08.007Z,2.95
2022-08-21T22:01:32.963Z,3.58
2022-08-21T22:07:05.570Z,1.10
2022-08-21T22:18:05.749Z,4.57
2022-08-21T22:23:13.591Z,4.88
2022-08-21T22:28:25.549Z,3.15
2022-08-21T22:33:29.617Z,1.23
2022-08-21T22:38:36.255Z,2.25
2022-08-21T22:44:12.156Z,2.25
2022-08-21T22:49:31.134Z,3.72
2022-08-21T22:54:39.866Z,1.75
2022-08-21T23:00:10.509Z,3.15
2022-08-21T23:05:25.360Z,4.70
2022-08-21T23:10:39.786Z,2.40
2022-08-21T23:15:46.160Z,1.80
2022-08-21T23:21:01.930Z,1.45
2022-08-21T23:26:22.830Z,1.27
2022-08-21T23:31:54.928Z,2.78
2022-08-21T23:37:48.579Z,2.17
2022-08-21T23:43:06.469Z,1.27
2022-08-21T23:48:21.619Z,0.85
2022-08-21T23:53:50.569Z,0.93
2022-08-21T23:58:57.672Z,0.80
